createdAt,value
2019-04-06T00:00:46.860Z,21.49
2019-04-06T00:02:48.498Z,21.52
2019-04-06T00:04:50.094Z,21.54
2019-04-06T00:06:51.716Z,21.53
2019-04-06T00:08:53.313Z,21.52
2019-04-06T00:10:55.270Z,21.53
2019-04-06T00:12:56.604Z,21.52
2019-04-06T00:14:58.185Z,21.50
2019-04-06T00:16:59.819Z,21.51
2019-04-06T00:19:01.433Z,21.50
2019-04-06T00:21:03.027Z,21.50
2019-04-06T00:23:04.638Z,21.51
2019-04-06T00:25:06.261Z,21.52
2019-04-06T00:27:07.882Z,21.54
2019-04-06T00:29:09.501Z,21.55
2019-04-06T00:31:17.585Z,21.61
2019-04-06T00:33:19.212Z,21.64
2019-04-06T00:35:20.818Z,21.69
2019-04-06T00:37:22.431Z,21.68
2019-04-06T00:39:24.034Z,21.66
2019-04-06T00:41:25.628Z,21.65
2019-04-06T00:43:27.256Z,21.63
2019-04-06T00:45:28.846Z,21.62
2019-04-06T00:47:30.486Z,21.63
2019-04-06T00:49:32.080Z,21.66
2019-04-06T00:51:33.658Z,21.68
2019-04-06T00:53:35.279Z,21.70
2019-04-06T00:55:36.925Z,21.72
2019-04-06T00:57:38.507Z,21.74
2019-04-06T00:59:40.111Z,21.74
2019-04-06T01:01:41.700Z,21.76
2019-04-06T01:03:43.289Z,21.74
2019-04-06T01:05:44.912Z,21.70
2019-04-06T01:07:46.523Z,21.70
2019-04-06T01:09:48.105Z,21.71
2019-04-06T01:11:49.752Z,21.71
2019-04-06T01:13:51.343Z,21.70
2019-04-06T01:15:52.954Z,21.69
2019-04-06T01:17:54.570Z,21.67
2019-04-06T01:19:56.166Z,21.65
2019-04-06T01:21:57.771Z,21.62
2019-04-06T01:23:59.364Z,21.62
2019-04-06T01:26:07.202Z,21.63
2019-04-06T01:28:02.706Z,21.64
2019-04-06T01:30:04.312Z,21.59
2019-04-06T01:32:05.924Z,21.59
2019-04-06T01:34:07.590Z,21.63
2019-04-06T01:36:09.279Z,21.66
2019-04-06T01:38:10.906Z,21.67
2019-04-06T01:40:12.521Z,21.74
2019-04-06T01:42:14.114Z,21.64
2019-04-06T01:44:15.721Z,21.81
2019-04-06T01:46:17.344Z,21.87
2019-04-06T01:48:18.976Z,21.90
2019-04-06T01:50:20.554Z,21.85
2019-04-06T01:52:22.155Z,21.84
2019-04-06T01:54:23.768Z,21.82
2019-04-06T01:56:25.388Z,21.79
2019-04-06T01:58:26.986Z,21.82
2019-04-06T02:00:28.605Z,21.89
2019-04-06T02:02:30.225Z,21.96
2019-04-06T02:04:31.839Z,22.05
2019-04-06T02:06:33.432Z,22.08
2019-04-06T02:08:35.057Z,22.13
2019-04-06T02:10:36.674Z,22.15
2019-04-06T02:12:38.318Z,22.21
2019-04-06T02:14:39.935Z,22.25
2019-04-06T02:16:41.507Z,22.29
2019-04-06T02:18:43.192Z,22.33
2019-04-06T02:20:44.850Z,22.35
2019-04-06T02:22:46.462Z,22.36
2019-04-06T02:24:48.068Z,22.37
2019-04-06T02:26:49.673Z,22.33
2019-04-06T02:28:51.308Z,22.38
2019-04-06T02:31:03.679Z,22.39
2019-04-06T02:33:07.194Z,22.40
2019-04-06T02:35:19.447Z,22.39
2019-04-06T02:37:35.955Z,22.38
2019-04-06T02:39:53.238Z,22.36
2019-04-06T02:41:57.444Z,22.32
2019-04-06T02:43:58.949Z,22.35
2019-04-06T02:46:00.561Z,22.29
2019-04-06T02:48:02.153Z,22.24
2019-04-06T02:50:03.768Z,22.19
2019-04-06T02:52:05.389Z,22.17
2019-04-06T02:54:07.022Z,22.15
2019-04-06T02:56:08.644Z,22.12
2019-04-06T02:58:10.294Z,22.10
2019-04-06T03:00:11.914Z,22.06
2019-04-06T03:02:13.620Z,22.04
2019-04-06T03:04:15.247Z,22.03
2019-04-06T03:06:16.901Z,22.02
2019-04-06T03:08:18.500Z,21.99
2019-04-06T03:10:20.166Z,21.97
2019-04-06T03:12:21.769Z,21.97
2019-04-06T03:14:23.440Z,21.96
2019-04-06T03:16:25.230Z,21.95
2019-04-06T03:18:26.769Z,21.96
2019-04-06T03:20:28.383Z,21.96
2019-04-06T03:22:30.047Z,21.97
2019-04-06T03:24:31.687Z,21.99
2019-04-06T03:26:33.322Z,21.99
2019-04-06T03:28:34.901Z,21.98
2019-04-06T03:30:36.823Z,21.99
2019-04-06T03:32:38.134Z,22.00
2019-04-06T03:34:39.815Z,22.01
2019-04-06T03:36:41.471Z,22.05
2019-04-06T03:38:43.076Z,22.07
2019-04-06T03:40:44.691Z,22.05
2019-04-06T03:42:46.287Z,22.07
2019-04-06T03:44:47.912Z,22.06
2019-04-06T03:46:49.579Z,22.05
2019-04-06T03:48:51.190Z,22.04
2019-04-06T03:50:52.811Z,22.04
2019-04-06T03:52:54.437Z,22.03
2019-04-06T03:54:56.034Z,22.05
2019-04-06T03:56:57.660Z,22.03
2019-04-06T03:58:59.310Z,22.03
2019-04-06T04:01:00.989Z,22.01
2019-04-06T04:03:02.730Z,22.00
2019-04-06T04:05:04.308Z,21.96
2019-04-06T04:07:05.900Z,21.94
2019-04-06T04:09:07.524Z,21.93
2019-04-06T04:11:09.121Z,21.89
2019-04-06T04:13:10.861Z,21.89
2019-04-06T04:15:12.716Z,21.89
2019-04-06T04:17:14.058Z,21.96
2019-04-06T04:19:15.690Z,22.00
2019-04-06T04:21:17.310Z,22.05
2019-04-06T04:23:18.911Z,22.06
2019-04-06T04:25:20.502Z,22.07
2019-04-06T04:27:29.570Z,22.12
2019-04-06T04:29:23.783Z,22.17
2019-04-06T04:31:25.383Z,22.19
2019-04-06T04:33:26.972Z,22.20
2019-04-06T04:35:28.599Z,22.20
2019-04-06T04:37:30.209Z,22.23
2019-04-06T04:39:31.841Z,22.22
2019-04-06T04:41:33.462Z,22.21
2019-04-06T04:43:35.048Z,22.26
2019-04-06T04:45:36.650Z,22.27
2019-04-06T04:47:38.255Z,22.27
2019-04-06T04:49:39.886Z,22.29
2019-04-06T04:51:41.500Z,22.27
2019-04-06T04:53:43.102Z,22.19
2019-04-06T04:55:44.716Z,22.20
2019-04-06T04:57:46.310Z,22.23
2019-04-06T04:59:47.898Z,22.25
2019-04-06T05:01:49.520Z,22.28
2019-04-06T05:03:51.134Z,22.28
2019-04-06T05:05:52.746Z,22.25
2019-04-06T05:07:54.365Z,22.23
2019-04-06T05:09:55.942Z,22.21
2019-04-06T05:11:57.535Z,22.18
2019-04-06T05:13:59.279Z,22.19
2019-04-06T05:16:00.862Z,22.18
2019-04-06T05:18:02.481Z,22.16
2019-04-06T05:20:04.076Z,22.14
2019-04-06T05:22:05.697Z,22.13
2019-04-06T05:24:07.417Z,22.13
2019-04-06T05:26:08.954Z,22.12
2019-04-06T05:28:10.755Z,22.10
2019-04-06T05:30:12.185Z,22.13
2019-04-06T05:32:13.812Z,22.04
2019-04-06T05:34:15.447Z,22.12
2019-04-06T05:36:17.086Z,22.11
2019-04-06T05:38:18.704Z,22.09
2019-04-06T05:40:20.341Z,22.10
2019-04-06T05:42:21.947Z,22.08
2019-04-06T05:44:23.585Z,22.07
2019-04-06T05:46:25.208Z,22.06
2019-04-06T05:48:26.810Z,22.03
2019-04-06T05:50:28.586Z,22.01
2019-04-06T05:52:30.064Z,22.00
2019-04-06T05:54:31.661Z,21.99
2019-04-06T05:56:33.271Z,21.96
2019-04-06T05:58:34.884Z,21.95
2019-04-06T06:00:39.925Z,21.94
2019-04-06T06:02:41.434Z,21.94
2019-04-06T06:04:40.581Z,21.97
2019-04-06T06:06:41.541Z,21.99
2019-04-06T06:08:43.287Z,21.98
2019-04-06T06:10:44.781Z,21.98
2019-04-06T06:12:46.380Z,22.00
2019-04-06T06:14:47.966Z,21.99
2019-04-06T06:16:49.582Z,21.97
2019-04-06T06:18:51.191Z,21.95
2019-04-06T06:20:52.812Z,21.94
2019-04-06T06:22:54.596Z,21.91
2019-04-06T06:24:56.100Z,21.91
2019-04-06T06:26:57.760Z,21.94
2019-04-06T06:28:59.376Z,21.96
2019-04-06T06:31:01.071Z,21.98
2019-04-06T06:33:02.664Z,22.01
2019-04-06T06:35:04.262Z,22.10
2019-04-06T06:37:06.005Z,22.15
2019-04-06T06:39:07.591Z,22.21
2019-04-06T06:41:09.200Z,22.26
2019-04-06T06:43:10.824Z,22.28
2019-04-06T06:45:12.438Z,22.30
2019-04-06T06:47:14.016Z,22.32
2019-04-06T06:49:15.666Z,22.37
2019-04-06T06:51:17.268Z,22.31
2019-04-06T06:53:18.886Z,22.77
2019-04-06T06:55:20.477Z,22.70
2019-04-06T06:57:22.069Z,22.58
2019-04-06T06:59:23.719Z,22.55
2019-04-06T07:01:25.352Z,22.65
2019-04-06T07:03:26.949Z,22.71
2019-04-06T07:05:28.560Z,22.75
2019-04-06T07:07:30.179Z,22.75
2019-04-06T07:09:32.000Z,22.73
2019-04-06T07:11:33.491Z,22.64
2019-04-06T07:13:35.084Z,22.68
2019-04-06T07:15:36.671Z,22.91
2019-04-06T07:17:38.260Z,22.90
2019-04-06T07:19:39.888Z,22.68
2019-04-06T07:21:41.480Z,22.54
2019-04-06T07:23:43.093Z,22.47
2019-04-06T07:25:56.183Z,22.43
2019-04-06T07:27:46.362Z,22.39
2019-04-06T07:29:47.951Z,22.41
2019-04-06T07:31:49.545Z,22.63
2019-04-06T07:33:51.160Z,22.55
2019-04-06T07:35:52.754Z,22.46
2019-04-06T07:37:54.355Z,22.43
2019-04-06T07:39:55.976Z,22.41
2019-04-06T07:41:57.819Z,22.41
2019-04-06T07:43:59.263Z,22.41
2019-04-06T07:46:01.006Z,22.41
2019-04-06T07:48:02.617Z,22.44
2019-04-06T07:50:04.453Z,22.47
2019-04-06T07:52:05.946Z,22.51
2019-04-06T07:54:07.519Z,22.59
2019-04-06T07:56:09.113Z,22.71
2019-04-06T07:58:10.729Z,22.82
2019-04-06T08:00:12.324Z,22.90
2019-04-06T08:02:14.130Z,22.94
2019-04-06T08:04:15.709Z,22.97
2019-04-06T08:06:17.328Z,22.96
2019-04-06T08:08:18.921Z,22.97
2019-04-06T08:10:20.536Z,23.04
2019-04-06T08:12:22.152Z,23.07
2019-04-06T08:14:23.775Z,23.24
2019-04-06T08:16:25.392Z,23.21
2019-04-06T08:18:27.009Z,23.21
2019-04-06T08:20:28.604Z,23.45
2019-04-06T08:22:30.199Z,23.39
2019-04-06T08:24:31.778Z,23.31
2019-04-06T08:26:33.404Z,23.25
2019-04-06T08:28:35.001Z,23.26
2019-04-06T08:30:45.451Z,23.27
2019-04-06T08:32:38.251Z,23.27
2019-04-06T08:34:39.871Z,23.22
2019-04-06T08:36:41.488Z,23.28
2019-04-06T08:38:43.132Z,23.27
2019-04-06T08:40:44.744Z,23.31
2019-04-06T08:42:46.363Z,23.33
2019-04-06T08:44:47.973Z,23.34
2019-04-06T08:46:49.638Z,23.26
2019-04-06T08:48:51.247Z,23.35
2019-04-06T08:50:52.922Z,23.26
2019-04-06T08:52:54.551Z,23.26
2019-04-06T08:54:56.159Z,23.30
2019-04-06T08:56:57.760Z,23.30
2019-04-06T08:59:10.151Z,23.72
2019-04-06T09:01:01.015Z,23.88
2019-04-06T09:03:02.636Z,24.01
2019-04-06T09:05:04.239Z,23.42
2019-04-06T09:07:05.848Z,23.73
2019-04-06T09:09:07.490Z,23.40
2019-04-06T09:11:09.081Z,23.32
2019-04-06T09:13:10.725Z,23.26
2019-04-06T09:15:12.343Z,23.16
2019-04-06T09:17:13.964Z,23.15
2019-04-06T09:19:15.584Z,23.13
2019-04-06T09:21:17.251Z,23.11
2019-04-06T09:23:19.052Z,23.11
2019-04-06T09:25:20.652Z,23.09
2019-04-06T09:27:22.553Z,23.06
2019-04-06T09:29:24.662Z,23.03
2019-04-06T09:31:25.679Z,23.00
2019-04-06T09:33:27.273Z,22.98
2019-04-06T09:35:28.886Z,22.94
2019-04-06T09:37:30.482Z,22.94
2019-04-06T09:39:32.099Z,22.92
2019-04-06T09:41:33.696Z,22.90
2019-04-06T09:43:35.316Z,22.88
2019-04-06T09:45:36.941Z,22.87
2019-04-06T09:47:39.208Z,22.84
2019-04-06T09:49:46.709Z,22.85
2019-04-06T09:52:03.087Z,22.83
2019-04-06T09:54:24.449Z,22.86
2019-04-06T09:56:37.020Z,23.28
2019-04-06T09:58:54.294Z,23.47
2019-04-06T10:00:57.678Z,23.36
2019-04-06T10:03:04.946Z,23.00
2019-04-06T10:05:07.020Z,22.88
2019-04-06T10:07:14.339Z,22.85
2019-04-06T10:09:15.966Z,22.82
2019-04-06T10:11:17.589Z,22.81
2019-04-06T10:13:35.889Z,22.79
2019-04-06T10:15:39.932Z,22.79
2019-04-06T10:17:42.624Z,22.80
2019-04-06T10:19:46.822Z,22.79
2019-04-06T10:21:54.187Z,22.77
2019-04-06T10:24:06.492Z,22.80
2019-04-06T10:26:13.654Z,22.80
2019-04-06T10:28:30.907Z,22.80
2019-04-06T10:30:47.391Z,22.79
2019-04-06T10:33:00.995Z,22.78
2019-04-06T10:35:21.056Z,22.77
2019-04-06T10:37:28.294Z,22.74
2019-04-06T10:39:32.540Z,22.76
2019-04-06T10:41:50.991Z,22.75
2019-04-06T10:43:58.416Z,22.74
2019-04-06T10:46:18.849Z,22.75
2019-04-06T10:48:20.466Z,22.74
2019-04-06T10:50:29.639Z,22.73
2019-04-06T10:52:33.980Z,22.71
2019-04-06T10:54:52.342Z,22.71
2019-04-06T10:57:08.860Z,22.70
2019-04-06T10:59:31.348Z,22.69
2019-04-06T11:01:54.049Z,22.66
2019-04-06T11:04:10.857Z,22.66
2019-04-06T11:06:12.781Z,22.65
2019-04-06T11:08:20.059Z,22.64
2019-04-06T11:10:36.578Z,22.63
2019-04-06T11:12:42.640Z,22.67
2019-04-06T11:14:46.913Z,22.71
2019-04-06T11:16:48.503Z,22.56
2019-04-06T11:18:50.100Z,22.26
2019-04-06T11:21:06.634Z,22.36
2019-04-06T11:23:09.735Z,22.34
2019-04-06T11:25:29.033Z,22.27
2019-04-06T11:27:36.204Z,22.26
2019-04-06T11:29:53.653Z,22.26
2019-04-06T11:32:12.956Z,22.28
2019-04-06T11:34:32.381Z,22.26
2019-04-06T11:36:48.892Z,22.19
2019-04-06T11:38:51.522Z,22.22
2019-04-06T11:41:13.773Z,22.22
2019-04-06T11:43:25.328Z,22.12
2019-04-06T11:45:42.678Z,22.07
2019-04-06T11:47:49.839Z,22.21
2019-04-06T11:50:06.229Z,22.18
2019-04-06T11:52:07.854Z,22.14
2019-04-06T11:54:26.224Z,22.10
2019-04-06T11:56:40.603Z,22.07
2019-04-06T11:58:43.814Z,21.97
2019-04-06T12:00:51.110Z,21.96
2019-04-06T12:03:08.373Z,21.92
2019-04-06T12:05:09.989Z,21.98
2019-04-06T12:07:28.293Z,21.95
2019-04-06T12:09:46.528Z,21.91
2019-04-06T12:11:52.928Z,21.99
2019-04-06T12:13:59.965Z,22.04
2019-04-06T12:16:07.130Z,22.14
2019-04-06T12:18:13.600Z,22.25
2019-04-06T12:20:20.073Z,22.35
2019-04-06T12:22:37.283Z,22.38
2019-04-06T12:24:44.557Z,22.41
2019-04-06T12:26:56.898Z,22.44
2019-04-06T12:29:04.268Z,22.51
2019-04-06T12:31:21.580Z,22.56
2019-04-06T12:33:27.914Z,22.56
2019-04-06T12:35:34.558Z,22.60
2019-04-06T12:37:37.750Z,22.61
2019-04-06T12:39:51.413Z,22.61
2019-04-06T12:41:57.646Z,22.62
2019-04-06T12:44:00.731Z,22.61
2019-04-06T12:46:23.128Z,22.57
2019-04-06T12:48:28.212Z,22.62
2019-04-06T12:50:29.824Z,22.70
2019-04-06T12:52:39.221Z,22.75
2019-04-06T12:54:46.436Z,22.74
2019-04-06T12:56:48.412Z,22.76
2019-04-06T12:58:50.013Z,22.77
2019-04-06T13:00:53.779Z,22.76
2019-04-06T13:02:56.665Z,22.71
2019-04-06T13:04:59.369Z,22.67
2019-04-06T13:07:06.563Z,22.56
2019-04-06T13:09:11.084Z,22.62
2019-04-06T13:11:19.895Z,22.38
2019-04-06T13:13:20.032Z,22.55
2019-04-06T13:15:27.227Z,22.48
2019-04-06T13:17:48.613Z,22.42
2019-04-06T13:20:05.911Z,22.51
2019-04-06T13:22:09.095Z,22.57
2019-04-06T13:24:16.719Z,22.70
2019-04-06T13:26:28.787Z,22.86
2019-04-06T13:28:47.241Z,22.84
2019-04-06T13:31:00.655Z,23.02
2019-04-06T13:33:00.191Z,23.28
2019-04-06T13:35:03.328Z,23.77
2019-04-06T13:37:10.055Z,23.72
2019-04-06T13:39:15.160Z,24.00
2019-04-06T13:41:22.377Z,24.28
2019-04-06T13:43:29.768Z,24.34
2019-04-06T13:45:32.512Z,24.33
2019-04-06T13:47:37.901Z,24.46
2019-04-06T13:49:50.845Z,24.31
2019-04-06T13:52:08.680Z,24.06
2019-04-06T13:54:29.856Z,23.53
2019-04-06T13:56:52.442Z,23.40
2019-04-06T13:58:54.644Z,23.35
2019-04-06T14:01:13.840Z,23.31
2019-04-06T14:03:03.957Z,23.29
2019-04-06T14:05:05.605Z,23.19
2019-04-06T14:07:22.527Z,23.11
2019-04-06T14:09:27.353Z,23.11
2019-04-06T14:11:34.802Z,23.15
2019-04-06T14:13:38.272Z,23.15
2019-04-06T14:15:59.133Z,23.06
2019-04-06T14:18:15.288Z,22.95
2019-04-06T14:20:17.708Z,22.90
2019-04-06T14:22:26.456Z,22.83
2019-04-06T14:24:33.788Z,22.81
2019-04-06T14:26:39.865Z,22.79
2019-04-06T14:28:57.261Z,22.78
2019-04-06T14:31:27.926Z,22.78
2019-04-06T14:33:31.792Z,22.84
2019-04-06T14:35:42.284Z,23.37
2019-04-06T14:37:46.328Z,23.82
2019-04-06T14:39:51.682Z,23.95
2019-04-06T14:41:59.022Z,24.04
2019-04-06T14:44:06.483Z,24.04
2019-04-06T14:46:09.358Z,23.95
2019-04-06T14:48:21.260Z,23.82
2019-04-06T14:50:22.544Z,23.98
2019-04-06T14:52:29.809Z,23.63
2019-04-06T14:54:37.008Z,23.27
2019-04-06T14:56:40.508Z,23.06
2019-04-06T14:58:59.050Z,22.86
2019-04-06T15:01:01.962Z,22.77
2019-04-06T15:03:05.151Z,23.20
2019-04-06T15:05:16.656Z,23.44
2019-04-06T15:07:23.891Z,23.56
2019-04-06T15:09:31.199Z,23.24
2019-04-06T15:11:47.700Z,22.85
2019-04-06T15:13:52.104Z,22.63
2019-04-06T15:15:53.720Z,22.46
2019-04-06T15:18:12.178Z,22.34
2019-04-06T15:20:27.446Z,22.31
2019-04-06T15:22:29.411Z,22.30
2019-04-06T15:24:36.499Z,22.30
2019-04-06T15:26:40.893Z,22.31
2019-04-06T15:28:44.001Z,22.29
2019-04-06T15:30:46.400Z,22.30
2019-04-06T15:32:48.912Z,22.29
2019-04-06T15:35:09.270Z,22.29
2019-04-06T15:37:27.748Z,22.30
2019-04-06T15:39:41.137Z,22.31
2019-04-06T15:41:55.380Z,22.30
2019-04-06T15:44:08.990Z,22.30
2019-04-06T15:46:12.191Z,22.31
2019-04-06T15:48:39.060Z,22.31
2019-04-06T15:50:49.986Z,22.29
2019-04-06T15:52:56.024Z,22.25
2019-04-06T15:55:07.534Z,22.20
2019-04-06T15:57:11.216Z,22.20
2019-04-06T15:59:12.513Z,22.16
2019-04-06T16:01:31.883Z,22.12
2019-04-06T16:03:51.036Z,22.07
2019-04-06T16:05:58.260Z,22.02
2019-04-06T16:08:05.824Z,21.98
2019-04-06T16:10:07.476Z,21.94
2019-04-06T16:12:09.868Z,21.91
2019-04-06T16:14:26.279Z,21.89
2019-04-06T16:16:31.818Z,21.85
2019-04-06T16:18:48.841Z,21.80
2019-04-06T16:21:08.088Z,21.78
2019-04-06T16:23:15.122Z,21.76
2019-04-06T16:25:20.580Z,21.76
2019-04-06T16:27:24.966Z,21.79
2019-04-06T16:29:43.410Z,21.81
2019-04-06T16:31:45.001Z,21.83
2019-04-06T16:33:52.298Z,21.83
2019-04-06T16:35:54.872Z,21.80
2019-04-06T16:38:01.694Z,21.78
2019-04-06T16:40:03.807Z,21.75
2019-04-06T16:42:06.836Z,21.73
2019-04-06T16:44:12.015Z,21.70
2019-04-06T16:46:23.640Z,21.67
2019-04-06T16:48:42.292Z,21.62
2019-04-06T16:50:49.555Z,21.60
2019-04-06T16:52:51.105Z,21.57
2019-04-06T16:55:11.385Z,21.54
2019-04-06T16:57:28.281Z,21.50
2019-04-06T16:59:35.117Z,21.48
2019-04-06T17:01:53.465Z,21.46
2019-04-06T17:04:06.925Z,21.43
2019-04-06T17:06:23.313Z,21.41
2019-04-06T17:08:27.068Z,21.41
2019-04-06T17:10:33.410Z,21.42
2019-04-06T17:12:40.830Z,21.45
2019-04-06T17:14:48.074Z,21.46
2019-04-06T17:16:51.449Z,21.45
2019-04-06T17:18:53.792Z,21.43
2019-04-06T17:21:00.164Z,21.40
2019-04-06T17:23:07.429Z,21.38
2019-04-06T17:25:09.034Z,21.36
2019-04-06T17:27:10.639Z,21.35
2019-04-06T17:29:17.776Z,21.34
2019-04-06T17:31:34.647Z,21.40
2019-04-06T17:33:51.771Z,21.43
2019-04-06T17:35:59.354Z,21.46
2019-04-06T17:38:04.428Z,21.50
2019-04-06T17:40:12.210Z,21.50
2019-04-06T17:42:14.082Z,21.50
2019-04-06T17:44:21.358Z,21.48
2019-04-06T17:46:24.567Z,21.46
2019-04-06T17:48:41.051Z,21.45
2019-04-06T17:50:45.632Z,21.43
2019-04-06T17:53:02.133Z,21.44
2019-04-06T17:55:09.380Z,21.47
2019-04-06T17:57:11.000Z,21.46
2019-04-06T17:59:22.513Z,21.46
2019-04-06T18:01:27.902Z,21.43
2019-04-06T18:03:34.285Z,21.43
2019-04-06T18:05:42.711Z,21.42
2019-04-06T18:07:45.013Z,21.45
2019-04-06T18:10:01.491Z,21.47
2019-04-06T18:12:18.855Z,21.46
2019-04-06T18:14:20.517Z,21.45
2019-04-06T18:16:22.145Z,21.41
2019-04-06T18:18:23.765Z,21.41
2019-04-06T18:20:25.368Z,21.39
2019-04-06T18:22:26.983Z,21.38
2019-04-06T18:24:28.579Z,21.37
2019-04-06T18:26:30.196Z,21.39
2019-04-06T18:28:31.824Z,21.39
2019-04-06T18:30:33.755Z,21.43
2019-04-06T18:32:38.548Z,21.44
2019-04-06T18:34:40.233Z,21.48
2019-04-06T18:36:52.636Z,21.49
2019-04-06T18:38:54.296Z,21.48
2019-04-06T18:40:55.893Z,21.47
2019-04-06T18:42:57.506Z,21.44
2019-04-06T18:44:59.114Z,21.42
2019-04-06T18:47:00.814Z,21.43
2019-04-06T18:49:02.453Z,21.46
2019-04-06T18:51:04.312Z,21.48
2019-04-06T18:53:06.132Z,21.51
2019-04-06T18:55:07.531Z,21.55
2019-04-06T18:57:09.233Z,21.53
2019-04-06T18:59:10.944Z,21.54
2019-04-06T19:01:12.576Z,21.53
2019-04-06T19:03:16.427Z,21.48
2019-04-06T19:05:15.879Z,21.52
2019-04-06T19:07:17.587Z,21.54
2019-04-06T19:09:22.665Z,21.58
2019-04-06T19:11:20.880Z,21.61
2019-04-06T19:13:23.225Z,21.65
2019-04-06T19:15:24.175Z,21.65
2019-04-06T19:17:25.774Z,21.63
2019-04-06T19:19:27.436Z,21.59
2019-04-06T19:21:30.409Z,21.57
2019-04-06T19:23:30.664Z,21.54
2019-04-06T19:25:32.780Z,21.56
2019-04-06T19:27:34.063Z,21.55
2019-04-06T19:29:35.700Z,21.57
2019-04-06T19:31:37.673Z,21.57
2019-04-06T19:33:39.016Z,21.56
2019-04-06T19:35:40.612Z,21.55
2019-04-06T19:37:42.215Z,21.55
2019-04-06T19:39:43.796Z,21.57
2019-04-06T19:41:45.422Z,21.60
2019-04-06T19:43:47.043Z,21.64
2019-04-06T19:45:48.711Z,21.67
2019-04-06T19:47:50.331Z,21.73
2019-04-06T19:49:51.949Z,21.72
2019-04-06T19:51:53.664Z,21.75
2019-04-06T19:53:55.902Z,21.80
2019-04-06T19:55:57.436Z,21.80
2019-04-06T19:57:59.694Z,21.79
2019-04-06T20:00:00.423Z,21.76
2019-04-06T20:02:02.102Z,21.75
2019-04-06T20:04:03.698Z,21.71
2019-04-06T20:06:05.326Z,21.67
2019-04-06T20:08:07.148Z,21.67
2019-04-06T20:10:08.553Z,21.66
2019-04-06T20:12:10.303Z,21.67
2019-04-06T20:14:11.977Z,21.66
2019-04-06T20:16:13.559Z,21.65
2019-04-06T20:18:15.157Z,21.63
2019-04-06T20:20:16.734Z,21.60
2019-04-06T20:22:18.374Z,21.57
2019-04-06T20:24:19.969Z,21.57
2019-04-06T20:26:22.265Z,21.52
2019-04-06T20:28:23.359Z,21.48
2019-04-06T20:30:25.565Z,21.46
2019-04-06T20:32:26.736Z,21.43
2019-04-06T20:34:28.432Z,21.39
2019-04-06T20:36:30.414Z,21.36
2019-04-06T20:38:32.250Z,21.34
2019-04-06T20:40:33.495Z,21.32
2019-04-06T20:42:35.032Z,21.28
2019-04-06T20:44:37.075Z,21.43
2019-04-06T20:46:38.667Z,21.72
2019-04-06T20:48:40.090Z,22.32
2019-04-06T20:50:41.650Z,22.46
2019-04-06T20:52:43.240Z,22.70
2019-04-06T20:54:45.161Z,22.73
2019-04-06T20:56:53.995Z,22.77
2019-04-06T20:58:48.251Z,22.77
2019-04-06T21:00:50.507Z,22.83
2019-04-06T21:02:52.014Z,22.71
2019-04-06T21:04:53.162Z,22.83
2019-04-06T21:06:54.949Z,22.86
2019-04-06T21:08:56.588Z,22.91
2019-04-06T21:10:58.217Z,22.97
2019-04-06T21:13:00.495Z,23.06
2019-04-06T21:15:02.352Z,23.14
2019-04-06T21:17:04.207Z,23.08
2019-04-06T21:19:05.489Z,23.22
2019-04-06T21:21:07.111Z,23.26
2019-04-06T21:23:08.719Z,23.07
2019-04-06T21:25:10.344Z,23.06
2019-04-06T21:27:12.442Z,23.12
2019-04-06T21:29:13.739Z,23.15
2019-04-06T21:31:15.332Z,23.35
2019-04-06T21:33:17.074Z,23.32
2019-04-06T21:35:18.880Z,23.35
2019-04-06T21:37:20.282Z,23.28
2019-04-06T21:39:22.369Z,23.24
2019-04-06T21:41:24.588Z,23.18
2019-04-06T21:43:25.287Z,23.11
2019-04-06T21:45:26.885Z,23.07
2019-04-06T21:47:28.523Z,23.08
2019-04-06T21:49:30.113Z,23.08
2019-04-06T21:51:32.404Z,23.12
2019-04-06T21:53:33.445Z,23.09
2019-04-06T21:55:35.623Z,23.07
2019-04-06T21:57:36.756Z,23.15
2019-04-06T21:59:38.385Z,22.83
2019-04-06T22:01:40.102Z,22.81
2019-04-06T22:03:41.825Z,23.02
2019-04-06T22:05:43.409Z,23.15
2019-04-06T22:07:49.582Z,23.32
2019-04-06T22:09:46.772Z,23.35
2019-04-06T22:11:48.337Z,23.34
2019-04-06T22:13:49.932Z,23.32
2019-04-06T22:15:51.783Z,23.38
2019-04-06T22:17:53.312Z,23.42
2019-04-06T22:19:55.100Z,23.68
2019-04-06T22:21:56.589Z,23.73
2019-04-06T22:23:58.208Z,23.72
2019-04-06T22:26:00.408Z,23.43
2019-04-06T22:28:01.875Z,23.07
2019-04-06T22:30:03.126Z,22.92
2019-04-06T22:32:04.953Z,22.78
2019-04-06T22:34:06.868Z,22.69
2019-04-06T22:36:08.115Z,22.60
2019-04-06T22:38:09.740Z,22.50
2019-04-06T22:40:11.385Z,22.43
2019-04-06T22:42:13.024Z,22.40
2019-04-06T22:44:14.603Z,22.09
2019-04-06T22:46:16.231Z,22.32
2019-04-06T22:48:17.841Z,22.26
2019-04-06T22:50:19.977Z,22.23
2019-04-06T22:52:21.174Z,22.20
2019-04-06T22:54:23.010Z,22.14
2019-04-06T22:56:24.432Z,22.10
2019-04-06T22:58:26.034Z,22.12
2019-04-06T23:00:28.193Z,22.10
2019-04-06T23:02:29.771Z,22.13
2019-04-06T23:04:45.756Z,22.15
2019-04-06T23:06:40.440Z,22.14
2019-04-06T23:08:42.280Z,22.14
2019-04-06T23:10:43.765Z,22.13
2019-04-06T23:12:45.370Z,22.14
2019-04-06T23:14:46.978Z,22.17
2019-04-06T23:16:49.189Z,22.18
2019-04-06T23:18:50.288Z,22.14
2019-04-06T23:20:51.875Z,22.09
2019-04-06T23:22:53.817Z,22.08
2019-04-06T23:24:55.194Z,22.06
2019-04-06T23:26:56.835Z,22.07
2019-04-06T23:28:58.463Z,22.07
2019-04-06T23:31:00.276Z,22.09
2019-04-06T23:33:01.794Z,22.09
2019-04-06T23:35:03.627Z,22.07
2019-04-06T23:37:05.085Z,22.06
2019-04-06T23:39:06.848Z,22.01
2019-04-06T23:41:08.412Z,22.01
2019-04-06T23:43:10.068Z,21.99
2019-04-06T23:45:11.660Z,21.96
2019-04-06T23:47:13.737Z,21.97
2019-04-06T23:49:14.952Z,22.00
2019-04-06T23:51:16.555Z,22.01
2019-04-06T23:53:18.161Z,22.05
2019-04-06T23:55:20.018Z,22.08
2019-04-06T23:57:21.404Z,22.11
2019-04-06T23:59:23.329Z,22.17
